createdAt,value
2023-04-19T00:01:09.601Z,17.1
2023-04-19T00:02:25.489Z,17.1
2023-04-19T00:03:41.984Z,17.1
2023-04-19T00:04:58.164Z,17
2023-04-19T00:06:13.068Z,17
2023-04-19T00:07:29.552Z,17.1
2023-04-19T00:08:45.740Z,17
2023-04-19T00:10:01.631Z,17.1
2023-04-19T00:11:17.809Z,17.1
2023-04-19T00:12:34.003Z,17.1
2023-04-19T00:13:50.496Z,17
2023-04-19T00:15:06.376Z,17
2023-04-19T00:16:22.864Z,17
2023-04-19T00:17:38.768Z,17
2023-04-19T00:18:54.951Z,17
2023-04-19T00:20:11.426Z,17
2023-04-19T00:21:27.330Z,17
2023-04-19T00:22:42.818Z,17
2023-04-19T00:23:58.712Z,17
2023-04-19T00:25:14.906Z,17
2023-04-19T00:26:31.090Z,17
2023-04-19T00:27:47.291Z,17
2023-04-19T00:29:03.469Z,17
2023-04-19T00:30:19.663Z,17
2023-04-19T00:31:36.152Z,17
2023-04-19T00:32:52.038Z,17
2023-04-19T00:34:08.528Z,17
2023-04-19T00:35:24.401Z,17
2023-04-19T00:36:40.601Z,17
2023-04-19T00:37:57.082Z,17
2023-04-19T00:39:11.991Z,17
2023-04-19T00:40:28.000Z,17
2023-04-19T00:41:44.370Z,17
2023-04-19T00:43:00.549Z,17
2023-04-19T00:44:16.735Z,17
2023-04-19T00:45:33.232Z,17
2023-04-19T00:46:48.442Z,17
2023-04-19T00:48:04.339Z,17
2023-04-19T00:49:20.526Z,17
2023-04-19T00:50:37.004Z,17
2023-04-19T00:51:53.208Z,17
2023-04-19T00:54:25.585Z,17
2023-04-19T00:55:41.455Z,17
2023-04-19T00:56:57.653Z,17
2023-04-19T00:58:14.155Z,17
2023-04-19T00:59:30.333Z,17
2023-04-19T01:00:46.530Z,17
2023-04-19T01:02:02.000Z,17
2023-04-19T01:03:17.601Z,17
2023-04-19T01:04:34.113Z,17
2023-04-19T01:05:50.289Z,17
2023-04-19T01:07:06.183Z,17
2023-04-19T01:08:22.666Z,17
2023-04-19T01:09:38.564Z,17
2023-04-19T01:10:54.748Z,17
2023-04-19T01:12:11.242Z,17
2023-04-19T01:13:27.119Z,17
2023-04-19T01:14:43.298Z,17
2023-04-19T01:15:59.803Z,17
2023-04-19T01:17:15.994Z,17
2023-04-19T01:18:31.882Z,17
2023-04-19T01:19:47.083Z,17
2023-04-19T01:21:03.266Z,17
2023-04-19T01:22:19.463Z,17
2023-04-19T01:23:35.960Z,17
2023-04-19T01:24:51.826Z,17
2023-04-19T01:26:08.023Z,17
2023-04-19T01:27:24.199Z,17
2023-04-19T01:28:40.709Z,17
2023-04-19T01:29:56.906Z,17
2023-04-19T01:31:12.786Z,17
2023-04-19T01:32:29.277Z,17
2023-04-19T01:33:45.149Z,16.9
2023-04-19T01:35:01.653Z,17
2023-04-19T01:36:16.864Z,17
2023-04-19T01:37:33.058Z,17
2023-04-19T01:38:49.229Z,16.9
2023-04-19T01:40:05.122Z,17
2023-04-19T01:41:21.622Z,16.9
2023-04-19T01:42:37.811Z,17
2023-04-19T01:43:54.000Z,16.9
2023-04-19T01:45:10.184Z,17
2023-04-19T01:46:26.371Z,16.9
2023-04-19T01:47:42.551Z,16.9
2023-04-19T01:48:58.424Z,16.9
2023-04-19T01:50:14.615Z,16.9
2023-04-19T01:51:31.130Z,16.9
2023-04-19T01:52:46.010Z,16.9
2023-04-19T01:54:02.525Z,16.9
2023-04-19T01:55:18.387Z,16.9
2023-04-19T01:56:34.572Z,16.9
2023-04-19T01:57:50.760Z,16.9
2023-04-19T01:59:07.276Z,16.9
2023-04-19T02:00:23.465Z,16.9
2023-04-19T02:01:39.326Z,16.9
2023-04-19T02:02:55.833Z,16.9
2023-04-19T02:04:11.720Z,16.9
2023-04-19T02:05:27.907Z,16.9
2023-04-19T02:06:44.405Z,16.9
2023-04-19T02:08:00.594Z,16.9
2023-04-19T02:09:15.485Z,16.9
2023-04-19T02:10:31.999Z,16.9
2023-04-19T02:11:47.862Z,16.9
2023-04-19T02:13:04.382Z,16.9
2023-04-19T02:14:20.232Z,16.9
2023-04-19T02:15:36.432Z,16.9
2023-04-19T02:16:52.616Z,16.9
2023-04-19T02:18:08.816Z,16.9
2023-04-19T02:19:25.001Z,16.9
2023-04-19T02:20:41.185Z,16.9
2023-04-19T02:21:57.689Z,16.9
2023-04-19T02:23:13.550Z,16.9
2023-04-19T02:24:29.738Z,16.9
2023-04-19T02:25:45.282Z,16.9
2023-04-19T02:27:01.132Z,16.9
2023-04-19T02:28:17.649Z,16.9
2023-04-19T02:29:33.839Z,16.9
2023-04-19T02:30:49.711Z,16.9
2023-04-19T02:32:06.230Z,16.9
2023-04-19T02:33:22.082Z,16.9
2023-04-19T02:34:38.286Z,16.9
2023-04-19T02:35:54.783Z,16.9
2023-04-19T02:37:10.977Z,16.9
2023-04-19T02:38:27.174Z,16.8
2023-04-19T02:39:43.358Z,16.8
2023-04-19T02:40:59.537Z,16.9
2023-04-19T02:42:14.428Z,16.8
2023-04-19T02:43:30.616Z,16.9
2023-04-19T02:44:47.136Z,16.8
2023-04-19T02:46:03.328Z,16.8
2023-04-19T02:47:19.189Z,16.8
2023-04-19T02:48:35.707Z,16.8
2023-04-19T02:49:51.550Z,16.8
2023-04-19T02:51:08.067Z,16.8
2023-04-19T02:52:24.274Z,16.8
2023-04-19T02:53:40.458Z,16.8
2023-04-19T02:54:56.638Z,16.8
2023-04-19T02:56:12.496Z,16.8
2023-04-19T02:57:28.701Z,16.8
2023-04-19T02:58:44.218Z,16.8
2023-04-19T03:00:00.412Z,16.8
2023-04-19T03:01:16.603Z,16.8
2023-04-19T03:02:32.467Z,16.8
2023-04-19T03:03:48.989Z,16.8
2023-04-19T03:05:05.167Z,16.8
2023-04-19T03:06:21.358Z,16.8
2023-04-19T03:07:37.546Z,16.8
2023-04-19T03:08:53.395Z,16.8
2023-04-19T03:10:09.926Z,16.8
2023-04-19T03:11:26.116Z,16.8
2023-04-19T03:12:41.961Z,16.8
2023-04-19T03:13:58.496Z,16.8
2023-04-19T03:15:13.698Z,16.8
2023-04-19T03:16:29.886Z,16.8
2023-04-19T03:17:45.736Z,16.8
2023-04-19T03:19:01.924Z,16.8
2023-04-19T03:20:18.458Z,16.8
2023-04-19T03:21:34.310Z,16.8
2023-04-19T03:22:50.503Z,16.8
2023-04-19T03:24:07.014Z,16.8
2023-04-19T03:25:23.216Z,16.8
2023-04-19T03:26:39.399Z,16.7
2023-04-19T03:27:55.254Z,16.7
2023-04-19T03:29:11.776Z,16.8
2023-04-19T03:30:27.974Z,16.7
2023-04-19T03:31:42.825Z,16.7
2023-04-19T03:32:59.364Z,16.7
2023-04-19T03:34:15.212Z,16.7
2023-04-19T03:35:31.745Z,16.7
2023-04-19T03:36:47.578Z,16.7
2023-04-19T03:38:04.119Z,16.7
2023-04-19T03:39:20.295Z,16.7
2023-04-19T03:40:36.161Z,16.7
2023-04-19T03:41:52.686Z,16.7
2023-04-19T03:43:08.540Z,16.7
2023-04-19T03:44:24.717Z,16.7
2023-04-19T03:45:41.245Z,16.7
2023-04-19T03:46:57.106Z,16.7
2023-04-19T03:48:12.652Z,16.7
2023-04-19T03:49:28.830Z,16.7
2023-04-19T03:52:01.203Z,16.7
2023-04-19T03:53:17.058Z,16.7
2023-04-19T03:54:33.596Z,16.7
2023-04-19T03:55:49.776Z,16.7
2023-04-19T03:57:05.970Z,16.7
2023-04-19T03:58:21.817Z,16.7
2023-04-19T03:59:37.990Z,16.7
2023-04-19T04:00:54.196Z,16.7
2023-04-19T04:02:10.728Z,16.7
2023-04-19T04:03:26.564Z,16.7
2023-04-19T04:04:42.111Z,16.7
2023-04-19T04:05:58.299Z,16.7
2023-04-19T04:07:14.486Z,16.7
2023-04-19T04:08:30.678Z,16.7
2023-04-19T04:09:46.874Z,16.7
2023-04-19T04:11:03.066Z,16.7
2023-04-19T04:12:18.904Z,16.7
2023-04-19T04:13:35.095Z,16.7
2023-04-19T04:14:51.633Z,16.7
2023-04-19T04:16:07.815Z,16.7
2023-04-19T04:17:24.001Z,16.7
2023-04-19T04:18:40.184Z,16.7
2023-04-19T04:19:56.382Z,16.7
2023-04-19T04:21:11.236Z,16.7
2023-04-19T04:22:27.416Z,16.7
2023-04-19T04:23:43.969Z,16.7
2023-04-19T04:25:00.072Z,16.7
2023-04-19T04:26:16.347Z,16.7
2023-04-19T04:27:32.445Z,16.7
2023-04-19T04:28:48.628Z,16.7
2023-04-19T04:30:04.911Z,16.7
2023-04-19T04:31:21.099Z,16.7
2023-04-19T04:32:37.283Z,16.7
2023-04-19T04:33:53.472Z,16.7
2023-04-19T04:35:09.000Z,16.7
2023-04-19T04:36:25.769Z,16.7
2023-04-19T04:37:40.963Z,16.7
2023-04-19T04:38:57.249Z,16.7
2023-04-19T04:40:13.342Z,16.7
2023-04-19T04:41:29.631Z,16.7
2023-04-19T04:42:45.730Z,16.7
2023-04-19T04:44:01.907Z,16.7
2023-04-19T04:45:18.193Z,16.7
2023-04-19T04:46:34.381Z,16.7
2023-04-19T04:47:50.565Z,16.7
2023-04-19T04:49:06.662Z,16.7
2023-04-19T04:50:22.846Z,16.7
2023-04-19T04:51:39.036Z,16.7
2023-04-19T04:52:55.315Z,16.7
2023-04-19T04:54:10.534Z,16.7
2023-04-19T04:55:26.725Z,16.7
2023-04-19T04:56:42.917Z,16.7
2023-04-19T04:57:59.103Z,16.7
2023-04-19T04:59:15.288Z,16.7
2023-04-19T05:00:31.473Z,16.7
2023-04-19T05:01:46.684Z,16.7
2023-04-19T05:03:02.787Z,16.7
2023-04-19T05:04:19.069Z,16.7
2023-04-19T05:05:35.245Z,16.7
2023-04-19T05:06:51.437Z,16.7
2023-04-19T05:08:07.621Z,16.7
2023-04-19T05:09:23.829Z,16.7
2023-04-19T05:10:39.921Z,16.7
2023-04-19T05:11:56.194Z,16.7
2023-04-19T05:13:12.382Z,16.7
2023-04-19T05:14:28.489Z,16.7
2023-04-19T05:15:44.658Z,16.7
2023-04-19T05:17:00.956Z,16.7
2023-04-19T05:18:16.058Z,16.7
2023-04-19T05:19:32.343Z,16.7
2023-04-19T05:20:48.548Z,16.7
2023-04-19T05:22:04.629Z,16.7
2023-04-19T05:23:20.812Z,16.7
2023-04-19T05:24:37.096Z,16.7
2023-04-19T05:25:53.283Z,16.7
2023-04-19T05:27:09.383Z,16.7
2023-04-19T05:28:25.572Z,16.7
2023-04-19T05:29:41.754Z,16.7
2023-04-19T05:30:57.941Z,16.7
2023-04-19T05:32:14.232Z,16.7
2023-04-19T05:33:30.423Z,16.7
2023-04-19T05:34:45.525Z,16.7
2023-04-19T05:36:01.815Z,16.7
2023-04-19T05:37:17.919Z,16.7
2023-04-19T05:38:34.101Z,16.7
2023-04-19T05:39:50.391Z,16.7
2023-04-19T05:41:06.469Z,16.7
2023-04-19T05:42:22.762Z,16.7
2023-04-19T05:43:38.848Z,16.7
2023-04-19T05:44:55.034Z,16.7
2023-04-19T05:46:11.228Z,16.7
2023-04-19T05:47:27.417Z,16.7
2023-04-19T05:48:43.720Z,16.8
2023-04-19T05:49:59.802Z,16.8
2023-04-19T05:51:15.105Z,16.8
2023-04-19T05:52:31.193Z,16.8
2023-04-19T05:53:47.483Z,16.8
2023-04-19T05:55:03.664Z,16.8
2023-04-19T05:56:19.758Z,16.8
2023-04-19T05:57:35.947Z,16.8
2023-04-19T05:58:52.249Z,16.8
2023-04-19T06:00:08.313Z,16.8
2023-04-19T06:01:24.619Z,16.8
2023-04-19T06:02:40.697Z,16.8
2023-04-19T06:03:57.000Z,16.8
2023-04-19T06:05:13.176Z,16.8
2023-04-19T06:06:29.255Z,16.8
2023-04-19T06:07:44.476Z,16.8
2023-04-19T06:09:00.000Z,16.8
2023-04-19T06:10:16.948Z,16.8
2023-04-19T06:11:33.155Z,16.8
2023-04-19T06:12:49.221Z,16.8
2023-04-19T06:14:05.408Z,16.8
2023-04-19T06:15:21.600Z,16.8
2023-04-19T06:16:37.908Z,16.8
2023-04-19T06:17:53.971Z,16.8
2023-04-19T06:19:10.158Z,16.8
2023-04-19T06:20:26.360Z,16.8
2023-04-19T06:21:42.664Z,16.8
2023-04-19T06:22:58.739Z,16.8
2023-04-19T06:24:14.045Z,16.9
2023-04-19T06:25:30.117Z,16.9
2023-04-19T06:26:46.424Z,16.8
2023-04-19T06:28:02.621Z,16.9
2023-04-19T06:29:18.818Z,16.9
2023-04-19T06:30:34.892Z,16.9
2023-04-19T06:31:51.079Z,16.9
2023-04-19T06:33:07.373Z,16.9
2023-04-19T06:34:23.555Z,16.9
2023-04-19T06:35:39.630Z,16.9
2023-04-19T06:36:55.827Z,16.9
2023-04-19T06:38:12.014Z,16.9
2023-04-19T06:39:28.208Z,17
2023-04-19T06:40:43.521Z,17.1
2023-04-19T06:41:59.709Z,17.1
2023-04-19T06:43:15.911Z,17.2
2023-04-19T06:44:32.096Z,17.1
2023-04-19T06:45:48.163Z,17.2
2023-04-19T06:47:04.464Z,17.2
2023-04-19T06:48:20.658Z,17.1
2023-04-19T06:49:36.855Z,17.1
2023-04-19T06:50:53.041Z,17.1
2023-04-19T06:52:09.225Z,17.1
2023-04-19T06:53:25.286Z,17.1
2023-04-19T06:54:41.608Z,17.1
2023-04-19T06:55:57.663Z,17.1
2023-04-19T06:57:12.875Z,17.1
2023-04-19T06:58:29.190Z,17.1
2023-04-19T06:59:45.259Z,17.1
2023-04-19T07:01:01.448Z,17.1
2023-04-19T07:02:17.629Z,17.1
2023-04-19T07:03:33.824Z,17.1
2023-04-19T07:04:50.131Z,17.1
2023-04-19T07:06:06.316Z,17.1
2023-04-19T07:07:22.501Z,17.1
2023-04-19T07:08:38.705Z,17.1
2023-04-19T07:09:54.764Z,17.1
2023-04-19T07:11:10.962Z,17.1
2023-04-19T07:12:27.266Z,17.1
2023-04-19T07:13:42.462Z,17.2
2023-04-19T07:14:58.667Z,17.2
2023-04-19T07:16:14.848Z,17.1
2023-04-19T07:17:31.033Z,17.2
2023-04-19T07:18:47.108Z,17.2
2023-04-19T07:20:03.278Z,17.2
2023-04-19T07:21:19.472Z,17.2
2023-04-19T07:22:35.670Z,17.2
2023-04-19T07:25:08.036Z,17.2
2023-04-19T07:26:24.369Z,17.2
2023-04-19T07:27:40.415Z,17.2
2023-04-19T07:28:56.740Z,17.2
2023-04-19T07:30:11.932Z,17.2
2023-04-19T07:31:28.007Z,17.2
2023-04-19T07:32:44.184Z,17.2
2023-04-19T07:34:00.514Z,17.2
2023-04-19T07:35:16.690Z,17.2
2023-04-19T07:36:32.887Z,17.2
2023-04-19T07:37:49.082Z,17.2
2023-04-19T07:39:05.132Z,17.2
2023-04-19T07:40:21.459Z,17.2
2023-04-19T07:41:37.639Z,17.2
2023-04-19T07:42:53.699Z,17.2
2023-04-19T07:44:09.881Z,17.2
2023-04-19T07:45:26.211Z,17.2
2023-04-19T07:46:41.273Z,17.2
2023-04-19T07:47:57.481Z,17.2
2023-04-19T07:49:13.786Z,17.3
2023-04-19T07:50:29.981Z,17.3
2023-04-19T07:51:46.160Z,17.3
2023-04-19T07:53:02.215Z,17.3
2023-04-19T07:54:18.407Z,17.3
2023-04-19T07:55:34.735Z,17.3
2023-04-19T07:56:50.926Z,17.3
2023-04-19T07:58:07.106Z,17.3
2023-04-19T07:59:23.311Z,17.3
2023-04-19T08:00:39.357Z,17.3
2023-04-19T08:01:55.540Z,17.3
2023-04-19T08:03:10.895Z,17.3
2023-04-19T08:04:27.068Z,17.3
2023-04-19T08:05:43.129Z,17.3
2023-04-19T08:06:59.459Z,17.3
2023-04-19T08:08:15.513Z,17.3
2023-04-19T08:09:31.702Z,17.3
2023-04-19T08:10:48.029Z,17.3
2023-04-19T08:12:04.073Z,17.3
2023-04-19T08:13:20.259Z,17.4
2023-04-19T08:14:36.597Z,17.4
2023-04-19T08:15:52.637Z,17.4
2023-04-19T08:17:08.822Z,17.4
2023-04-19T08:18:25.012Z,17.4
2023-04-19T08:19:40.223Z,17.5
2023-04-19T08:20:56.403Z,17.5
2023-04-19T08:22:12.733Z,17.5
2023-04-19T08:23:28.791Z,17.5
2023-04-19T08:24:44.979Z,17.6
2023-04-19T08:26:01.153Z,17.6
2023-04-19T08:27:17.345Z,17.6
2023-04-19T08:28:33.674Z,17.6
2023-04-19T08:29:49.727Z,17.7
2023-04-19T08:31:06.051Z,17.6
2023-04-19T08:32:22.100Z,17.6
2023-04-19T08:33:38.301Z,17.6
2023-04-19T08:34:54.629Z,17.7
2023-04-19T08:36:09.685Z,17.7
2023-04-19T08:37:26.018Z,17.7
2023-04-19T08:38:42.062Z,17.7
2023-04-19T08:39:58.256Z,17.7
2023-04-19T08:41:14.579Z,17.7
2023-04-19T08:42:30.625Z,17.7
2023-04-19T08:43:46.969Z,17.7
2023-04-19T08:45:03.151Z,17.7
2023-04-19T08:46:19.189Z,17.8
2023-04-19T08:47:35.391Z,17.8
2023-04-19T08:48:51.568Z,17.7
2023-04-19T08:50:07.906Z,17.8
2023-04-19T08:51:23.957Z,17.8
2023-04-19T08:52:39.296Z,17.8
2023-04-19T08:53:55.500Z,17.8
2023-04-19T08:55:11.543Z,17.8
2023-04-19T08:56:27.873Z,17.8
2023-04-19T08:57:44.068Z,17.8
2023-04-19T08:59:00.106Z,17.9
2023-04-19T09:00:16.437Z,17.9
2023-04-19T09:01:32.485Z,17.9
2023-04-19T09:02:48.671Z,17.9
2023-04-19T09:04:04.856Z,17.9
2023-04-19T09:05:21.194Z,17.9
2023-04-19T09:06:37.227Z,17.9
2023-04-19T09:07:53.567Z,17.9
2023-04-19T09:09:08.630Z,17.9
2023-04-19T09:10:24.816Z,17.8
2023-04-19T09:11:41.013Z,17.8
2023-04-19T09:12:57.184Z,17.8
2023-04-19T09:14:13.387Z,17.8
2023-04-19T09:15:29.716Z,17.8
2023-04-19T09:16:44.787Z,17.9
2023-04-19T09:18:00.965Z,17.9
2023-04-19T09:19:17.302Z,17.9
2023-04-19T09:20:33.505Z,17.9
2023-04-19T09:21:49.542Z,17.9
2023-04-19T09:23:05.868Z,17.9
2023-04-19T09:24:21.915Z,17.9
2023-04-19T09:25:38.095Z,17.9
2023-04-19T09:26:54.288Z,17.9
2023-04-19T09:28:10.477Z,18
2023-04-19T09:29:26.669Z,18
2023-04-19T09:30:42.858Z,18
2023-04-19T09:31:59.038Z,18
2023-04-19T09:33:14.248Z,18
2023-04-19T09:34:30.441Z,18.1
2023-04-19T09:35:46.786Z,18.1
2023-04-19T09:37:02.811Z,18.1
2023-04-19T09:38:19.151Z,18.1
2023-04-19T09:39:35.188Z,18.1
2023-04-19T09:40:51.373Z,18.1
2023-04-19T09:42:07.574Z,18.1
2023-04-19T09:43:23.750Z,18
2023-04-19T09:44:39.950Z,18
2023-04-19T09:45:56.298Z,18
2023-04-19T09:47:12.310Z,18.1
2023-04-19T09:48:28.516Z,18.1
2023-04-19T09:49:43.709Z,18.1
2023-04-19T09:51:00.061Z,18.1
2023-04-19T09:52:16.087Z,18.2
2023-04-19T09:53:32.424Z,18.2
2023-04-19T09:54:48.451Z,18.2
2023-04-19T09:56:04.654Z,18.2
2023-04-19T09:57:20.829Z,18.1
2023-04-19T09:58:37.014Z,18.1
2023-04-19T09:59:53.201Z,18.1
2023-04-19T10:01:09.550Z,18.1
2023-04-19T10:02:25.571Z,18.1
2023-04-19T10:03:41.760Z,18.1
2023-04-19T10:04:57.943Z,18.1
2023-04-19T10:06:13.323Z,18.1
2023-04-19T10:07:29.342Z,18.1
2023-04-19T10:08:45.697Z,18.1
2023-04-19T10:10:01.709Z,18.1
2023-04-19T10:11:17.895Z,18.1
2023-04-19T10:12:34.100Z,18.1
2023-04-19T10:13:50.446Z,18.1
2023-04-19T10:15:06.626Z,18.1
2023-04-19T10:16:22.812Z,18.2
2023-04-19T10:17:38.845Z,18.2
2023-04-19T10:18:55.023Z,18.3
2023-04-19T10:20:11.208Z,18.3
2023-04-19T10:21:27.409Z,18.3
2023-04-19T10:22:42.600Z,18.3
2023-04-19T10:23:58.786Z,18.3
2023-04-19T10:25:14.976Z,18.3
2023-04-19T10:26:31.162Z,18.3
2023-04-19T10:27:47.341Z,18.4
2023-04-19T10:29:03.706Z,18.4
2023-04-19T10:30:19.732Z,18.3
2023-04-19T10:31:35.901Z,18.3
2023-04-19T10:32:52.092Z,18.4
2023-04-19T10:34:08.446Z,18.4
2023-04-19T10:35:24.479Z,18.5
2023-04-19T10:36:40.822Z,18.5
2023-04-19T10:37:56.852Z,18.6
2023-04-19T10:39:12.220Z,18.6
2023-04-19T10:40:28.240Z,18.7
2023-04-19T10:41:44.420Z,18.7
2023-04-19T10:43:00.604Z,18.7
2023-04-19T10:44:16.969Z,18.6
2023-04-19T10:45:32.990Z,18.6
2023-04-19T10:46:49.164Z,18.6
2023-04-19T10:48:05.345Z,18.7
2023-04-19T10:49:21.532Z,18.7
2023-04-19T10:50:37.723Z,18.7
2023-04-19T10:51:53.926Z,18.7
2023-04-19T10:53:10.113Z,18.7
2023-04-19T10:54:26.283Z,18.7
2023-04-19T10:55:41.502Z,18.8
2023-04-19T10:56:57.676Z,18.9
2023-04-19T10:58:13.871Z,18.9
2023-04-19T10:59:30.224Z,18.9
2023-04-19T11:00:46.238Z,18.9
2023-04-19T11:02:02.422Z,19
2023-04-19T11:03:18.606Z,19
2023-04-19T11:04:34.795Z,19
2023-04-19T11:05:50.987Z,19
2023-04-19T11:07:07.351Z,19
2023-04-19T11:08:23.355Z,19
2023-04-19T11:09:39.000Z,19.1
2023-04-19T11:10:55.730Z,19
2023-04-19T11:12:10.939Z,19
2023-04-19T11:13:27.114Z,19
2023-04-19T11:14:43.488Z,19.1
2023-04-19T11:15:59.491Z,19
2023-04-19T11:17:15.852Z,19
2023-04-19T11:18:31.875Z,18.9
2023-04-19T11:19:48.058Z,19
2023-04-19T11:21:04.255Z,19.1
2023-04-19T11:22:20.603Z,19.1
2023-04-19T11:23:36.624Z,19.1
2023-04-19T11:24:52.804Z,19.2
2023-04-19T11:26:08.997Z,19.2
2023-04-19T11:27:25.177Z,19.3
2023-04-19T11:28:40.379Z,19.2
2023-04-19T11:29:56.746Z,19.2
2023-04-19T11:31:12.760Z,19.2
2023-04-19T11:32:28.943Z,19.2
2023-04-19T11:33:45.139Z,19.2
2023-04-19T11:35:01.319Z,19.2
2023-04-19T11:36:17.515Z,19.2
2023-04-19T11:37:33.881Z,19.2
2023-04-19T11:38:49.870Z,19.1
2023-04-19T11:40:06.072Z,19.1
2023-04-19T11:41:22.249Z,19.1
2023-04-19T11:42:38.618Z,19
2023-04-19T11:43:54.636Z,18.9
2023-04-19T11:45:09.822Z,18.9
2023-04-19T11:46:26.020Z,18.9
2023-04-19T11:47:42.197Z,18.9
2023-04-19T11:48:58.386Z,18.9
2023-04-19T11:50:14.763Z,18.8
2023-04-19T11:51:30.768Z,18.9
2023-04-19T11:52:47.143Z,18.9
2023-04-19T11:54:03.128Z,18.9
2023-04-19T11:55:19.328Z,18.9
2023-04-19T11:56:35.505Z,18.9
2023-04-19T11:57:51.689Z,19
2023-04-19T11:59:07.878Z,19.1
2023-04-19T12:00:24.061Z,19.2
2023-04-19T12:01:39.281Z,19.3
2023-04-19T12:02:55.647Z,19.3
2023-04-19T12:04:11.656Z,19.3
2023-04-19T12:05:27.836Z,19.4
2023-04-19T12:06:44.030Z,19.4
2023-04-19T12:08:00.401Z,19.3
2023-04-19T12:09:16.394Z,19.3
2023-04-19T12:10:32.760Z,19.3
2023-04-19T12:11:48.769Z,19.3
2023-04-19T12:13:04.948Z,19.4
2023-04-19T12:14:21.145Z,19.4
2023-04-19T12:15:37.526Z,19.4
2023-04-19T12:16:53.515Z,19.3
2023-04-19T12:18:08.915Z,19.3
2023-04-19T12:19:25.103Z,19.2
2023-04-19T12:20:41.097Z,19.2
2023-04-19T12:21:57.283Z,19.2
2023-04-19T12:23:13.657Z,19.1
2023-04-19T12:24:29.646Z,19.1
2023-04-19T12:25:45.840Z,19.1
2023-04-19T12:27:02.034Z,19.1
2023-04-19T12:28:18.220Z,19.2
2023-04-19T12:29:34.587Z,19.2
2023-04-19T12:30:50.786Z,19.3
2023-04-19T12:32:06.771Z,19.3
2023-04-19T12:33:22.966Z,19.3
2023-04-19T12:34:38.172Z,19.4
2023-04-19T12:35:54.354Z,19.4
2023-04-19T12:37:10.548Z,19.4
2023-04-19T12:38:26.918Z,19.4
2023-04-19T12:39:42.903Z,19.3
2023-04-19T12:40:59.300Z,19.3
2023-04-19T12:42:15.489Z,19.3
2023-04-19T12:43:31.468Z,19.4
2023-04-19T12:44:47.864Z,19.5
2023-04-19T12:46:04.035Z,19.5
2023-04-19T12:47:20.037Z,19.5
2023-04-19T12:48:36.408Z,19.5
2023-04-19T12:49:52.418Z,19.5
2023-04-19T12:51:07.609Z,19.5
2023-04-19T12:52:23.807Z,19.4
2023-04-19T12:53:40.176Z,19.4
2023-04-19T12:54:56.182Z,19.4
2023-04-19T12:56:12.563Z,19.4
2023-04-19T12:57:28.552Z,19.3
2023-04-19T12:58:44.742Z,19.2
2023-04-19T13:00:00.913Z,19.2
2023-04-19T13:01:17.309Z,19.3
2023-04-19T13:02:33.301Z,19.3
2023-04-19T13:03:49.676Z,19.4
2023-04-19T13:05:05.664Z,19.4
2023-04-19T13:06:21.848Z,19.7
2023-04-19T13:07:37.263Z,20.1
2023-04-19T13:08:53.449Z,20.1
2023-04-19T13:10:09.632Z,20
2023-04-19T13:11:25.619Z,20.1
2023-04-19T13:12:41.795Z,20.2
2023-04-19T13:13:57.984Z,20.2
2023-04-19T13:15:14.172Z,20.3
2023-04-19T13:16:30.569Z,20.3
2023-04-19T13:17:46.552Z,20.3
2023-04-19T13:19:02.942Z,20.2
2023-04-19T13:20:19.121Z,20.1
2023-04-19T13:21:35.119Z,20
2023-04-19T13:22:51.500Z,19.8
2023-04-19T13:24:06.717Z,19.6
2023-04-19T13:25:22.682Z,19.5
2023-04-19T13:26:39.084Z,19.4
2023-04-19T13:27:55.069Z,19.3
2023-04-19T13:29:11.260Z,19.3
2023-04-19T13:30:27.444Z,19.2
2023-04-19T13:31:42.850Z,19.2
2023-04-19T13:32:59.032Z,19.1
2023-04-19T13:34:15.227Z,19.1
2023-04-19T13:35:31.412Z,19.1
2023-04-19T13:36:47.596Z,19.1
2023-04-19T13:38:03.581Z,19.1
2023-04-19T13:39:19.974Z,19.1
2023-04-19T13:40:35.964Z,19.1
2023-04-19T13:41:52.133Z,19.1
2023-04-19T13:43:08.320Z,19.1
2023-04-19T13:44:24.514Z,19
2023-04-19T13:45:40.907Z,19
2023-04-19T13:46:57.100Z,19
2023-04-19T13:48:12.094Z,19
2023-04-19T13:49:28.491Z,19
2023-04-19T13:50:44.473Z,18.9
2023-04-19T13:52:00.652Z,18.9
2023-04-19T13:53:17.050Z,18.9
2023-04-19T13:54:33.241Z,18.9
2023-04-19T13:55:49.219Z,18.9
2023-04-19T13:57:05.402Z,18.8
2023-04-19T13:58:21.581Z,18.8
2023-04-19T13:59:37.768Z,18.8
2023-04-19T14:00:54.167Z,18.8
2023-04-19T14:02:10.359Z,18.8
2023-04-19T14:03:26.324Z,18.8
2023-04-19T14:04:41.758Z,18.8
2023-04-19T14:05:57.723Z,18.7
2023-04-19T14:07:13.906Z,18.7
2023-04-19T14:08:30.108Z,18.7
2023-04-19T14:09:46.500Z,18.7
2023-04-19T14:11:02.688Z,18.7
2023-04-19T14:12:18.872Z,18.7
2023-04-19T14:13:34.846Z,18.7
2023-04-19T14:14:51.033Z,18.7
2023-04-19T14:16:07.222Z,18.7
2023-04-19T14:17:23.626Z,18.7
2023-04-19T14:18:39.603Z,18.7
2023-04-19T14:19:55.993Z,18.8
2023-04-19T14:21:10.976Z,18.8
2023-04-19T14:22:27.177Z,18.8
2023-04-19T14:23:43.573Z,18.8
2023-04-19T14:24:59.757Z,18.9
2023-04-19T14:26:15.940Z,18.8
2023-04-19T14:27:32.140Z,18.8
2023-04-19T14:28:48.095Z,18.8
2023-04-19T14:30:04.300Z,18.8
2023-04-19T14:31:20.694Z,18.7
2023-04-19T14:32:36.880Z,18.7
2023-04-19T14:33:52.856Z,18.7
2023-04-19T14:35:09.033Z,18.7
2023-04-19T14:36:25.232Z,18.6
2023-04-19T14:37:40.431Z,18.6
2023-04-19T14:38:56.842Z,18.6
2023-04-19T14:40:12.796Z,18.5
2023-04-19T14:41:28.994Z,18.5
2023-04-19T14:42:45.166Z,18.5
2023-04-19T14:44:01.360Z,18.5
2023-04-19T14:45:17.550Z,18.5
2023-04-19T14:46:33.741Z,18.5
2023-04-19T14:47:49.928Z,18.5
2023-04-19T14:49:06.111Z,18.5
2023-04-19T14:50:22.524Z,18.5
2023-04-19T14:51:38.716Z,18.5
2023-04-19T14:52:54.670Z,18.4
2023-04-19T14:54:09.869Z,18.4
2023-04-19T14:55:26.063Z,18.4
2023-04-19T14:56:42.256Z,18.4
2023-04-19T14:57:58.431Z,18.4
2023-04-19T14:59:14.619Z,18.4
2023-04-19T15:00:30.811Z,18.3
2023-04-19T15:01:46.995Z,18.3
2023-04-19T15:03:03.188Z,18.3
2023-04-19T15:04:19.378Z,18.3
2023-04-19T15:05:35.773Z,18.3
2023-04-19T15:06:51.740Z,18.3
2023-04-19T15:08:07.927Z,18.3
2023-04-19T15:09:24.126Z,18.3
2023-04-19T15:10:39.537Z,18.3
2023-04-19T15:11:55.495Z,18.2
2023-04-19T15:13:11.697Z,18.2
2023-04-19T15:14:27.885Z,18.2
2023-04-19T15:15:44.072Z,18.2
2023-04-19T15:17:00.470Z,18.2
2023-04-19T15:18:16.444Z,18.2
2023-04-19T15:19:32.619Z,18.2
2023-04-19T15:20:49.039Z,18.2
2023-04-19T15:22:05.003Z,18.2
2023-04-19T15:23:21.197Z,18.2
2023-04-19T15:24:37.379Z,18.1
2023-04-19T15:25:53.564Z,18.1
2023-04-19T15:27:08.755Z,18.1
2023-04-19T15:28:25.185Z,18.1
2023-04-19T15:29:41.371Z,18.1
2023-04-19T15:30:57.332Z,18.1
2023-04-19T15:32:13.508Z,18.1
2023-04-19T15:33:29.703Z,18.1
2023-04-19T15:34:45.883Z,18.1
2023-04-19T15:36:02.062Z,18
2023-04-19T15:37:18.265Z,18
2023-04-19T15:38:34.435Z,18
2023-04-19T15:39:50.634Z,18
2023-04-19T15:41:07.055Z,18
2023-04-19T15:42:23.016Z,18
2023-04-19T15:43:38.218Z,18
2023-04-19T15:44:54.391Z,18
2023-04-19T15:46:10.578Z,18
2023-04-19T15:47:26.762Z,18
2023-04-19T15:48:43.200Z,18
2023-04-19T15:49:59.143Z,18
2023-04-19T15:51:15.571Z,18
2023-04-19T15:52:31.758Z,17.9
2023-04-19T15:53:47.699Z,17.9
2023-04-19T15:55:04.128Z,17.9
2023-04-19T15:56:20.070Z,17.9
2023-04-19T15:57:36.270Z,17.9
2023-04-19T15:58:52.461Z,17.9
2023-04-19T16:00:07.886Z,17.9
2023-04-19T16:01:23.848Z,17.9
2023-04-19T16:02:40.035Z,17.9
2023-04-19T16:03:56.453Z,17.9
2023-04-19T16:05:12.407Z,17.9
2023-04-19T16:06:28.581Z,17.9
2023-04-19T16:07:44.774Z,17.8
2023-04-19T16:09:00.971Z,17.8
2023-04-19T16:10:17.153Z,17.8
2023-04-19T16:11:33.575Z,17.8
2023-04-19T16:12:49.519Z,17.8
2023-04-19T16:14:05.699Z,17.8
2023-04-19T16:15:21.889Z,17.8
2023-04-19T16:16:37.333Z,17.8
2023-04-19T16:17:53.283Z,17.8
2023-04-19T16:19:09.711Z,17.8
2023-04-19T16:20:25.662Z,17.8
2023-04-19T16:21:42.079Z,17.8
2023-04-19T16:22:58.041Z,17.8
2023-04-19T16:24:14.216Z,17.8
2023-04-19T16:25:30.400Z,17.7
2023-04-19T16:26:46.602Z,17.7
2023-04-19T16:28:02.771Z,17.7
2023-04-19T16:29:18.967Z,17.7
2023-04-19T16:30:35.158Z,17.7
2023-04-19T16:31:51.340Z,17.7
2023-04-19T16:33:06.777Z,17.7
2023-04-19T16:34:22.964Z,17.7
2023-04-19T16:35:38.000Z,17.7
2023-04-19T16:36:55.099Z,17.7
2023-04-19T16:38:11.295Z,17.7
2023-04-19T16:39:27.469Z,17.7
2023-04-19T16:40:43.669Z,17.7
2023-04-19T16:42:00.100Z,17.7
2023-04-19T16:43:16.282Z,17.7
2023-04-19T16:44:32.479Z,17.7
2023-04-19T16:45:48.658Z,17.6
2023-04-19T16:47:04.838Z,17.6
2023-04-19T16:48:20.794Z,17.6
2023-04-19T16:49:36.235Z,17.6
2023-04-19T16:50:52.165Z,17.6
2023-04-19T16:52:08.603Z,17.6
2023-04-19T16:53:24.546Z,17.6
2023-04-19T16:54:40.987Z,17.6
2023-04-19T16:55:57.162Z,17.6
2023-04-19T16:57:13.000Z,17.6
2023-04-19T16:58:29.554Z,17.6
2023-04-19T16:59:45.477Z,17.6
2023-04-19T17:01:01.676Z,17.6
2023-04-19T17:02:18.103Z,17.5
2023-04-19T17:03:34.043Z,17.5
2023-04-19T17:04:50.486Z,17.5
2023-04-19T17:06:05.427Z,17.5
2023-04-19T17:07:21.868Z,17.5